createdAt,value
2022-10-19T00:01:15.964Z,99944.31
2022-10-19T00:06:31.505Z,99935.28
2022-10-19T00:09:04.250Z,99931.19
2022-10-19T00:11:33.006Z,99936.75
2022-10-19T00:14:00.856Z,99934.75
2022-10-19T00:16:32.030Z,99925.41
2022-10-19T00:19:01.162Z,99922.56
2022-10-19T00:21:28.641Z,99923.78
2022-10-19T00:23:55.557Z,99926.06
2022-10-19T00:26:22.581Z,99924.38
2022-10-19T00:28:49.278Z,99927.97
2022-10-19T00:31:18.123Z,99923.63
2022-10-19T00:33:46.954Z,99926.88
2022-10-19T00:36:27.962Z,99928.38
2022-10-19T00:38:58.545Z,99930.09
2022-10-19T00:41:31.169Z,99923.09
2022-10-19T00:44:27.777Z,99926.88
2022-10-19T00:47:01.839Z,99927.06
2022-10-19T00:49:36.343Z,99926.69
2022-10-19T00:52:08.664Z,99923.88
2022-10-19T00:54:38.934Z,99920.47
2022-10-19T00:57:06.770Z,99923.47
2022-10-19T00:59:34.502Z,99928.59
2022-10-19T01:02:04.645Z,99928.25
2022-10-19T01:04:35.230Z,99918.19
2022-10-19T01:07:04.911Z,99919.31
2022-10-19T01:09:31.593Z,99926.16
2022-10-19T01:12:08.970Z,99917.28
2022-10-19T01:15:04.216Z,99922.38
2022-10-19T01:18:10.861Z,99913.28
2022-10-19T01:20:50.218Z,99922.72
2022-10-19T01:23:54.414Z,99924.44
2022-10-19T01:26:47.550Z,99918.38
2022-10-19T01:29:47.967Z,99915.91
2022-10-19T01:32:40.720Z,99915.56
2022-10-19T01:35:40.254Z,99910.22
2022-10-19T01:38:39.518Z,99907.19
2022-10-19T01:41:25.114Z,99905.34
2022-10-19T01:44:24.966Z,99906.81
2022-10-19T01:46:58.182Z,99900.78
2022-10-19T01:49:59.125Z,99901.53
2022-10-19T01:52:27.218Z,99898.06
2022-10-19T01:55:00.606Z,99899.41
2022-10-19T01:57:33.257Z,99893.56
2022-10-19T02:00:07.133Z,99899.09
2022-10-19T02:02:42.223Z,99894.31
2022-10-19T02:05:11.361Z,99894.53
2022-10-19T02:07:40.630Z,99897.16
2022-10-19T02:10:08.120Z,99903.38
2022-10-19T02:12:36.785Z,99902.22
2022-10-19T02:15:14.378Z,99901.13
2022-10-19T02:17:47.743Z,99906.03
2022-10-19T02:20:15.887Z,99897.31
2022-10-19T02:22:42.861Z,99895.63
2022-10-19T02:25:10.537Z,99899.22
2022-10-19T02:27:41.683Z,99899.94
2022-10-19T02:30:14.969Z,99902.63
2022-10-19T02:32:42.578Z,99895.78
2022-10-19T02:35:11.295Z,99900.34
2022-10-19T02:37:38.515Z,99900.88
2022-10-19T02:40:06.574Z,99890.47
2022-10-19T02:42:40.818Z,99892.13
2022-10-19T02:45:28.442Z,99886.63
2022-10-19T02:48:04.166Z,99881.34
2022-10-19T02:50:31.122Z,99883.41
2022-10-19T02:53:01.046Z,99888.13
2022-10-19T02:55:30.180Z,99874.84
2022-10-19T02:57:57.282Z,99882.44
2022-10-19T03:00:23.915Z,99879.81
2022-10-19T03:02:50.506Z,99866.22
2022-10-19T03:05:17.150Z,99866.22
2022-10-19T03:07:43.774Z,99874.16
2022-10-19T03:10:10.402Z,99873.75
2022-10-19T03:12:37.020Z,99866.97
2022-10-19T03:15:04.673Z,99863.06
2022-10-19T03:17:31.564Z,99865.59
2022-10-19T03:19:58.347Z,99870.50
2022-10-19T03:22:24.955Z,99858.03
2022-10-19T03:24:51.546Z,99864.53
2022-10-19T03:27:18.130Z,99855.31
2022-10-19T03:29:44.742Z,99860.22
2022-10-19T03:32:11.328Z,99858.81
2022-10-19T03:34:37.928Z,99858.97
2022-10-19T03:37:04.498Z,99860.25
2022-10-19T03:39:31.115Z,99855.28
2022-10-19T03:41:57.686Z,99853.66
2022-10-19T03:44:24.303Z,99854.97
2022-10-19T03:46:51.905Z,99858.13
2022-10-19T03:49:18.818Z,99860.94
2022-10-19T03:51:45.387Z,99869.19
2022-10-19T03:54:16.416Z,99862.06
2022-10-19T03:56:43.559Z,99871.47
2022-10-19T03:59:14.542Z,99876.91
2022-10-19T04:01:45.110Z,99868.06
2022-10-19T04:04:16.182Z,99866.34
2022-10-19T04:06:45.963Z,99863.19
2022-10-19T04:09:15.796Z,99868.88
2022-10-19T04:11:43.127Z,99867.63
2022-10-19T04:14:19.007Z,99866.41
2022-10-19T04:16:53.691Z,99864.81
2022-10-19T04:19:20.289Z,99864.41
2022-10-19T04:21:49.338Z,99857.91
2022-10-19T04:24:18.412Z,99866.09
2022-10-19T04:26:50.998Z,99872.00
2022-10-19T04:29:20.003Z,99868.78
2022-10-19T04:31:49.920Z,99865.22
2022-10-19T04:34:17.581Z,99865.84
2022-10-19T04:36:44.485Z,99872.09
2022-10-19T04:39:11.386Z,99864.06
2022-10-19T04:41:38.623Z,99868.63
2022-10-19T04:44:08.921Z,99868.56
2022-10-19T04:46:35.592Z,99880.03
2022-10-19T04:49:04.153Z,99879.25
2022-10-19T04:51:31.188Z,99878.41
2022-10-19T04:53:59.533Z,99877.94
2022-10-19T04:56:27.546Z,99876.75
2022-10-19T04:58:56.693Z,99874.81
2022-10-19T05:01:25.042Z,99876.22
2022-10-19T05:03:58.028Z,99879.44
2022-10-19T05:06:25.379Z,99866.63
2022-10-19T05:08:52.454Z,99880.84
2022-10-19T05:11:20.110Z,99882.69
2022-10-19T05:13:47.593Z,99876.34
2022-10-19T05:16:18.860Z,99880.19
2022-10-19T05:18:58.863Z,99874.44
2022-10-19T05:21:28.417Z,99870.75
2022-10-19T05:23:56.683Z,99871.00
2022-10-19T05:26:27.685Z,99874.28
2022-10-19T05:28:57.851Z,99871.53
2022-10-19T05:31:28.179Z,99876.69
2022-10-19T05:33:56.194Z,99873.03
2022-10-19T05:36:32.085Z,99868.34
2022-10-19T05:39:01.665Z,99868.34
2022-10-19T05:41:28.433Z,99867.97
2022-10-19T05:43:59.049Z,99873.28
2022-10-19T05:46:28.015Z,99865.81
2022-10-19T05:48:58.941Z,99857.00
2022-10-19T05:51:27.470Z,99858.00
2022-10-19T05:53:55.695Z,99856.97
2022-10-19T05:56:28.563Z,99864.31
2022-10-19T05:58:57.342Z,99871.59
2022-10-19T06:01:24.510Z,99872.63
2022-10-19T06:03:53.316Z,99878.53
2022-10-19T06:06:20.776Z,99882.53
2022-10-19T06:08:48.551Z,99882.88
2022-10-19T06:11:27.985Z,99883.63
2022-10-19T06:13:58.119Z,99887.53
2022-10-19T06:16:26.681Z,99880.81
2022-10-19T06:18:54.048Z,99887.69
2022-10-19T06:21:24.737Z,99877.66
2022-10-19T06:23:56.937Z,99889.41
2022-10-19T06:26:24.765Z,99882.63
2022-10-19T06:29:00.154Z,99887.22
2022-10-19T06:31:31.742Z,99890.50
2022-10-19T06:33:58.545Z,99890.88
2022-10-19T06:36:29.696Z,99880.72
2022-10-19T06:38:56.948Z,99890.66
2022-10-19T06:41:23.880Z,99894.94
2022-10-19T06:43:52.287Z,99892.84
2022-10-19T06:46:23.018Z,99896.16
2022-10-19T06:48:55.485Z,99886.28
2022-10-19T06:51:23.191Z,99897.94
2022-10-19T06:53:52.870Z,99901.50
2022-10-19T06:56:24.369Z,99907.25
2022-10-19T06:58:51.196Z,99903.22
2022-10-19T07:01:18.355Z,99910.69
2022-10-19T07:03:45.124Z,99902.34
2022-10-19T07:06:13.561Z,99909.19
2022-10-19T07:08:42.440Z,99907.41
2022-10-19T07:11:18.609Z,99910.38
2022-10-19T07:13:45.373Z,99901.59
2022-10-19T07:16:19.829Z,99899.41
2022-10-19T07:18:52.189Z,99913.19
2022-10-19T07:21:21.148Z,99910.50
2022-10-19T07:23:48.265Z,99914.34
2022-10-19T07:26:23.320Z,99901.22
2022-10-19T07:28:50.552Z,99902.22
2022-10-19T07:31:20.471Z,99909.84
2022-10-19T07:33:51.814Z,99903.03
2022-10-19T07:36:20.767Z,99898.88
2022-10-19T07:38:47.469Z,99910.44
2022-10-19T07:41:19.320Z,99911.38
2022-10-19T07:43:47.683Z,99906.81
2022-10-19T07:46:21.648Z,99898.50
2022-10-19T07:48:49.669Z,99904.34
2022-10-19T07:51:18.769Z,99903.78
2022-10-19T07:53:45.825Z,99905.72
2022-10-19T07:56:16.377Z,99918.47
2022-10-19T07:58:43.597Z,99914.47
2022-10-19T08:01:14.624Z,99918.84
2022-10-19T08:04:48.644Z,99916.81
2022-10-19T08:06:29.038Z,99911.38
2022-10-19T08:08:56.223Z,99897.44
2022-10-19T08:11:27.227Z,99915.56
2022-10-19T08:13:55.349Z,99907.75
2022-10-19T08:16:29.505Z,99917.72
2022-10-19T08:19:00.219Z,99923.19
2022-10-19T08:21:29.799Z,99922.81
2022-10-19T08:23:57.076Z,99929.22
2022-10-19T08:26:25.039Z,99921.78
2022-10-19T08:28:51.829Z,99919.09
2022-10-19T08:31:22.163Z,99923.16
2022-10-19T08:33:52.001Z,99927.34
2022-10-19T08:36:22.158Z,99922.53
2022-10-19T08:38:49.654Z,99915.31
2022-10-19T08:41:38.078Z,99921.84
2022-10-19T08:44:29.750Z,99911.00
2022-10-19T08:47:16.510Z,99900.06
2022-10-19T08:49:45.635Z,99897.34
2022-10-19T08:52:22.714Z,99903.13
2022-10-19T08:54:57.118Z,99893.06
2022-10-19T08:58:03.579Z,99895.56
2022-10-19T09:00:49.595Z,99897.50
2022-10-19T09:03:57.775Z,99899.19
2022-10-19T09:07:01.587Z,99890.50
2022-10-19T09:09:31.816Z,99889.31
2022-10-19T09:12:06.184Z,99892.31
2022-10-19T09:14:45.549Z,99898.84
2022-10-19T09:17:16.769Z,99904.78
2022-10-19T09:19:43.375Z,99909.84
2022-10-19T09:22:25.701Z,99898.47
2022-10-19T09:25:03.760Z,99895.16
2022-10-19T09:27:41.020Z,99894.03
2022-10-19T09:30:20.752Z,99890.81
2022-10-19T09:32:52.156Z,99887.81
2022-10-19T09:35:26.639Z,99889.97
2022-10-19T09:37:54.915Z,99885.44
2022-10-19T09:40:29.502Z,99891.16
2022-10-19T09:42:58.186Z,99885.44
2022-10-19T09:45:45.063Z,99885.59
2022-10-19T09:48:50.556Z,99881.72
2022-10-19T09:51:18.547Z,99881.91
2022-10-19T09:53:53.206Z,99883.56
2022-10-19T09:56:22.056Z,99888.63
2022-10-19T09:58:52.380Z,99889.13
2022-10-19T10:01:40.109Z,99884.75
2022-10-19T10:04:17.932Z,99880.72
2022-10-19T10:06:48.508Z,99881.25
2022-10-19T10:09:25.780Z,99886.69
2022-10-19T10:11:57.734Z,99873.91
2022-10-19T10:14:32.963Z,99871.16
2022-10-19T10:17:13.238Z,99878.22
2022-10-19T10:19:52.231Z,99869.16
2022-10-19T10:22:36.839Z,99867.41
2022-10-19T10:25:17.117Z,99870.13
2022-10-19T10:28:02.173Z,99865.75
2022-10-19T10:30:35.276Z,99861.53
2022-10-19T10:33:13.402Z,99859.03
2022-10-19T10:35:53.443Z,99863.56
2022-10-19T10:38:25.986Z,99866.25
2022-10-19T10:41:00.037Z,99865.56
2022-10-19T10:43:34.532Z,99859.88
2022-10-19T10:46:15.044Z,99853.44
2022-10-19T10:48:53.346Z,99850.00
2022-10-19T10:51:54.429Z,99849.66
2022-10-19T10:54:31.192Z,99840.03
2022-10-19T10:57:16.694Z,99839.50
2022-10-19T11:00:10.959Z,99835.31
2022-10-19T11:02:58.428Z,99832.25
2022-10-19T11:05:30.924Z,99834.56
2022-10-19T11:08:18.667Z,99823.38
2022-10-19T11:11:06.903Z,99828.25
2022-10-19T11:13:48.863Z,99825.25
2022-10-19T11:16:19.771Z,99829.75
2022-10-19T11:18:52.897Z,99823.22
2022-10-19T11:21:27.571Z,99821.53
2022-10-19T11:24:10.452Z,99808.81
2022-10-19T11:27:14.456Z,99803.88
2022-10-19T11:29:47.081Z,99803.91
2022-10-19T11:32:52.921Z,99797.03
2022-10-19T11:35:34.846Z,99779.84
2022-10-19T11:38:45.818Z,99780.81
2022-10-19T11:41:29.716Z,99775.94
2022-10-19T11:44:40.077Z,99771.47
2022-10-19T11:48:04.642Z,99763.31
2022-10-19T11:50:58.960Z,99763.50
2022-10-19T11:54:02.839Z,99754.75
2022-10-19T11:57:11.441Z,99751.56
2022-10-19T12:00:33.888Z,99752.50
2022-10-19T12:03:30.202Z,99744.03
2022-10-19T12:06:21.534Z,99749.75
2022-10-19T12:09:38.590Z,99752.16
2022-10-19T12:12:25.144Z,99744.31
2022-10-19T12:15:12.063Z,99738.81
2022-10-19T12:17:42.177Z,99726.72
2022-10-19T12:20:26.889Z,99735.50
2022-10-19T12:22:54.162Z,99737.19
2022-10-19T12:25:21.799Z,99727.28
2022-10-19T12:27:50.593Z,99727.19
2022-10-19T12:30:23.622Z,99721.91
2022-10-19T12:33:13.870Z,99719.22
2022-10-19T12:35:55.220Z,99718.78
2022-10-19T12:38:49.487Z,99715.59
2022-10-19T12:41:52.303Z,99714.41
2022-10-19T12:44:48.711Z,99705.63
2022-10-19T12:47:22.459Z,99704.78
2022-10-19T12:49:50.713Z,99693.59
2022-10-19T12:52:44.415Z,99688.03
2022-10-19T12:55:26.805Z,99698.13
2022-10-19T12:58:06.844Z,99692.56
2022-10-19T13:00:37.622Z,99684.25
2022-10-19T13:03:04.235Z,99683.06
2022-10-19T13:05:32.982Z,99679.28
2022-10-19T13:08:03.128Z,99682.13
2022-10-19T13:10:32.094Z,99682.16
2022-10-19T13:12:59.454Z,99681.91
2022-10-19T13:15:35.051Z,99667.41
2022-10-19T13:18:12.952Z,99670.16
2022-10-19T13:23:06.985Z,99672.28
2022-10-19T13:25:35.737Z,99667.41
2022-10-19T13:28:28.208Z,99666.50
2022-10-19T13:31:06.081Z,99651.69
2022-10-19T13:33:45.739Z,99646.84
2022-10-19T13:36:12.682Z,99642.84
2022-10-19T13:38:46.935Z,99638.06
2022-10-19T13:41:22.549Z,99630.09
2022-10-19T13:44:01.070Z,99627.16
2022-10-19T13:46:30.625Z,99619.09
2022-10-19T13:49:21.978Z,99630.56
2022-10-19T13:52:03.572Z,99625.16
2022-10-19T13:54:57.329Z,99631.91
2022-10-19T13:57:54.712Z,99617.25
2022-10-19T14:00:25.288Z,99620.56
2022-10-19T14:03:31.125Z,99623.84
2022-10-19T14:06:27.559Z,99620.63
2022-10-19T14:09:29.710Z,99621.97
2022-10-19T14:12:07.348Z,99621.41
2022-10-19T14:14:44.401Z,99621.44
2022-10-19T14:17:20.544Z,99613.22
2022-10-19T14:19:52.196Z,99620.53
2022-10-19T14:22:33.742Z,99610.31
2022-10-19T14:25:07.376Z,99612.63
2022-10-19T14:27:35.101Z,99608.16
2022-10-19T14:30:02.726Z,99606.22
2022-10-19T14:32:34.241Z,99603.47
2022-10-19T14:35:20.195Z,99605.16
2022-10-19T14:37:47.031Z,99604.25
2022-10-19T14:40:32.095Z,99595.81
2022-10-19T14:43:01.127Z,99595.75
2022-10-19T14:45:32.098Z,99595.03
2022-10-19T14:48:05.543Z,99596.97
2022-10-19T14:50:48.799Z,99602.69
2022-10-19T14:54:17.283Z,99597.59
2022-10-19T14:57:08.746Z,99592.38
2022-10-19T15:00:01.584Z,99590.69
2022-10-19T15:02:37.515Z,99591.16
2022-10-19T15:05:06.851Z,99595.50
2022-10-19T15:07:42.184Z,99590.97
2022-10-19T15:10:24.691Z,99592.97
2022-10-19T15:13:03.440Z,99590.41
2022-10-19T15:15:33.951Z,99588.34
2022-10-19T15:18:00.587Z,99588.75
2022-10-19T15:20:44.126Z,99587.31
2022-10-19T15:23:42.991Z,99585.63
2022-10-19T15:26:24.543Z,99586.56
2022-10-19T15:28:51.876Z,99582.47
2022-10-19T15:31:24.803Z,99577.06
2022-10-19T15:33:58.527Z,99577.19
2022-10-19T15:36:26.603Z,99571.22
2022-10-19T15:39:33.039Z,99571.81
2022-10-19T15:42:38.782Z,99555.72
2022-10-19T15:45:09.177Z,99549.53
2022-10-19T15:47:36.024Z,99548.03
2022-10-19T15:50:02.962Z,99549.28
2022-10-19T15:52:33.462Z,99538.88
2022-10-19T15:55:01.582Z,99538.28
2022-10-19T15:57:35.220Z,99535.25
2022-10-19T16:00:17.590Z,99536.78
2022-10-19T16:02:44.529Z,99540.34
2022-10-19T16:05:11.665Z,99532.38
2022-10-19T16:07:41.078Z,99532.03
2022-10-19T16:10:15.562Z,99539.84
2022-10-19T16:12:42.372Z,99534.75
2022-10-19T16:15:13.657Z,99530.69
2022-10-19T16:17:40.526Z,99536.53
2022-10-19T16:20:09.990Z,99537.41
2022-10-19T16:22:36.621Z,99533.44
2022-10-19T16:25:04.034Z,99537.72
2022-10-19T16:27:30.637Z,99529.63
2022-10-19T16:29:57.252Z,99529.28
2022-10-19T16:32:23.838Z,99530.50
2022-10-19T16:34:50.401Z,99524.22
2022-10-19T16:37:16.954Z,99520.91
2022-10-19T16:39:43.529Z,99527.50
2022-10-19T16:42:10.206Z,99521.63
2022-10-19T16:44:36.769Z,99522.09
2022-10-19T16:47:03.875Z,99524.16
2022-10-19T16:49:32.128Z,99519.91
2022-10-19T16:52:00.455Z,99526.47
2022-10-19T16:54:29.779Z,99518.84
2022-10-19T16:56:56.408Z,99525.53
2022-10-19T16:59:22.993Z,99521.63
2022-10-19T17:01:50.122Z,99524.88
2022-10-19T17:04:17.932Z,99521.06
2022-10-19T17:06:44.686Z,99524.00
2022-10-19T17:11:57.988Z,99516.09
2022-10-19T17:14:24.562Z,99532.19
2022-10-19T17:16:51.162Z,99525.84
2022-10-19T17:19:17.804Z,99533.25
2022-10-19T17:21:44.387Z,99531.66
2022-10-19T17:24:21.057Z,99530.50
2022-10-19T17:26:50.234Z,99524.91
2022-10-19T17:29:17.179Z,99520.88
2022-10-19T17:31:44.075Z,99522.63
2022-10-19T17:34:11.175Z,99527.25
2022-10-19T17:36:44.559Z,99529.28
2022-10-19T17:39:17.716Z,99531.94
2022-10-19T17:41:46.312Z,99530.50
2022-10-19T17:44:13.127Z,99532.16
2022-10-19T17:46:39.699Z,99533.00
2022-10-19T17:49:06.631Z,99530.31
2022-10-19T17:51:36.062Z,99526.47
2022-10-19T17:54:13.204Z,99525.63
2022-10-19T17:56:45.200Z,99521.13
2022-10-19T17:59:12.913Z,99532.25
2022-10-19T18:01:39.910Z,99522.16
2022-10-19T18:04:06.719Z,99523.22
2022-10-19T18:06:36.447Z,99522.38
2022-10-19T18:09:06.557Z,99520.97
2022-10-19T18:11:43.035Z,99529.34
2022-10-19T18:14:11.889Z,99522.16
2022-10-19T18:16:45.399Z,99526.16
2022-10-19T18:19:14.943Z,99521.13
2022-10-19T18:21:44.114Z,99532.00
2022-10-19T18:24:19.907Z,99529.72
2022-10-19T18:26:48.634Z,99528.78
2022-10-19T18:29:20.299Z,99524.00
2022-10-19T18:31:52.091Z,99522.16
2022-10-19T18:34:23.191Z,99523.72
2022-10-19T18:36:50.495Z,99515.19
2022-10-19T18:39:18.040Z,99512.34
2022-10-19T18:41:44.795Z,99512.06
2022-10-19T18:44:13.304Z,99507.34
2022-10-19T18:46:40.322Z,99499.28
2022-10-19T18:49:08.593Z,99496.09
2022-10-19T18:51:36.018Z,99480.56
2022-10-19T18:54:11.929Z,99485.28
2022-10-19T18:56:38.547Z,99481.88
2022-10-19T18:59:05.493Z,99481.28
2022-10-19T19:01:32.453Z,99479.41
2022-10-19T19:04:07.145Z,99480.97
2022-10-19T19:06:36.060Z,99480.75
2022-10-19T19:09:07.703Z,99483.47
2022-10-19T19:11:37.396Z,99470.38
2022-10-19T19:14:10.100Z,99475.84
2022-10-19T19:16:38.800Z,99469.06
2022-10-19T19:19:07.104Z,99464.56
2022-10-19T19:21:36.303Z,99458.53
2022-10-19T19:24:16.350Z,99457.00
2022-10-19T19:26:48.253Z,99458.41
2022-10-19T19:29:15.943Z,99454.47
2022-10-19T19:31:42.689Z,99455.72
2022-10-19T19:34:09.687Z,99451.97
2022-10-19T19:36:38.407Z,99447.66
2022-10-19T19:39:05.315Z,99449.19
2022-10-19T19:41:33.958Z,99452.84
2022-10-19T19:44:00.743Z,99464.34
2022-10-19T19:46:27.407Z,99454.19
2022-10-19T19:49:03.375Z,99455.72
2022-10-19T19:51:31.843Z,99457.06
2022-10-19T19:53:59.585Z,99455.78
2022-10-19T19:56:26.817Z,99450.81
2022-10-19T19:58:59.239Z,99454.63
2022-10-19T20:01:27.015Z,99451.25
2022-10-19T20:03:53.850Z,99458.41
2022-10-19T20:06:23.696Z,99458.44
2022-10-19T20:08:53.286Z,99471.31
2022-10-19T20:11:19.996Z,99467.69
2022-10-19T20:13:46.578Z,99471.66
2022-10-19T20:16:16.927Z,99476.97
2022-10-19T20:18:46.886Z,99469.00
2022-10-19T20:21:14.719Z,99464.09
2022-10-19T20:23:45.540Z,99473.38
2022-10-19T20:26:23.571Z,99466.94
2022-10-19T20:28:50.931Z,99472.41
2022-10-19T20:31:18.770Z,99469.94
2022-10-19T20:33:47.329Z,99460.31
2022-10-19T20:36:20.062Z,99455.22
2022-10-19T20:38:49.753Z,99453.91
2022-10-19T20:41:18.926Z,99459.91
2022-10-19T20:43:45.687Z,99454.25
2022-10-19T20:46:20.870Z,99449.72
2022-10-19T20:48:48.009Z,99448.78
2022-10-19T20:51:21.318Z,99447.66
2022-10-19T20:53:50.442Z,99443.31
2022-10-19T20:56:23.553Z,99454.66
2022-10-19T20:59:00.070Z,99450.28
2022-10-19T21:01:29.618Z,99445.00
2022-10-19T21:04:00.369Z,99440.69
2022-10-19T21:06:30.625Z,99445.22
2022-10-19T21:08:59.209Z,99442.56
2022-10-19T21:11:32.139Z,99436.34
2022-10-19T21:14:02.629Z,99432.00
2022-10-19T21:16:33.421Z,99441.25
2022-10-19T21:19:01.978Z,99440.28
2022-10-19T21:21:35.278Z,99436.13
2022-10-19T21:24:19.087Z,99423.28
2022-10-19T21:26:47.181Z,99430.28
2022-10-19T21:29:15.874Z,99433.84
2022-10-19T21:31:48.644Z,99431.63
2022-10-19T21:34:27.967Z,99433.84
2022-10-19T21:36:55.645Z,99433.88
2022-10-19T21:39:22.782Z,99433.09
2022-10-19T21:41:49.891Z,99430.44
2022-10-19T21:44:18.154Z,99430.81
2022-10-19T21:46:47.303Z,99422.13
2022-10-19T21:49:14.034Z,99434.25
2022-10-19T21:51:53.821Z,99422.50
2022-10-19T21:54:24.753Z,99425.53
2022-10-19T21:56:52.959Z,99435.34
2022-10-19T21:59:19.584Z,99425.16
2022-10-19T22:01:46.202Z,99424.78
2022-10-19T22:04:17.616Z,99429.34
2022-10-19T22:06:45.242Z,99422.09
2022-10-19T22:09:17.091Z,99417.75
2022-10-19T22:11:44.292Z,99417.91
2022-10-19T22:14:14.155Z,99412.63
2022-10-19T22:16:41.670Z,99417.19
2022-10-19T22:19:09.807Z,99412.28
2022-10-19T22:24:14.355Z,99400.53
2022-10-19T22:26:50.481Z,99407.22
2022-10-19T22:29:17.386Z,99398.84
2022-10-19T22:31:44.151Z,99391.34
2022-10-19T22:34:16.583Z,99389.09
2022-10-19T22:36:44.588Z,99383.78
2022-10-19T22:39:12.136Z,99388.91
2022-10-19T22:41:38.753Z,99384.75
2022-10-19T22:44:05.661Z,99386.44
2022-10-19T22:46:32.388Z,99379.03
2022-10-19T22:48:59.110Z,99373.47
2022-10-19T22:51:26.131Z,99371.53
2022-10-19T22:53:52.729Z,99368.59
2022-10-19T22:56:19.310Z,99359.75
2022-10-19T22:58:45.895Z,99364.88
2022-10-19T23:01:15.276Z,99365.28
2022-10-19T23:03:42.567Z,99367.69
2022-10-19T23:06:12.575Z,99358.31
2022-10-19T23:08:39.797Z,99368.56
2022-10-19T23:11:07.378Z,99362.44
2022-10-19T23:13:34.011Z,99351.84
2022-10-19T23:16:00.572Z,99361.69
2022-10-19T23:18:27.247Z,99348.44
2022-10-19T23:20:59.484Z,99351.00
2022-10-19T23:23:28.052Z,99350.06
2022-10-19T23:26:18.447Z,99350.56
2022-10-19T23:28:48.000Z,99336.13
2022-10-19T23:31:26.373Z,99334.97
2022-10-19T23:33:53.836Z,99332.72
2022-10-19T23:36:27.586Z,99326.28
2022-10-19T23:38:56.704Z,99332.94
2022-10-19T23:41:24.019Z,99329.31
2022-10-19T23:43:50.931Z,99331.22
2022-10-19T23:46:17.591Z,99330.75
2022-10-19T23:48:44.276Z,99330.16
2022-10-19T23:51:18.466Z,99319.34
2022-10-19T23:53:47.575Z,99323.38
2022-10-19T23:56:20.518Z,99321.72
2022-10-19T23:58:47.811Z,99314.72
